createdAt,value
2023-01-22T00:00:17.980Z,101281.77
2023-01-22T00:03:24.798Z,101279.73
2023-01-22T00:06:12.961Z,101278.69
2023-01-22T00:09:03.976Z,101278.05
2023-01-22T00:11:51.256Z,101277.45
2023-01-22T00:14:40.609Z,101274.52
2023-01-22T00:17:27.325Z,101278.63
2023-01-22T00:20:14.756Z,101278.13
2023-01-22T00:23:01.405Z,101283.56
2023-01-22T00:25:48.600Z,101282.79
2023-01-22T00:28:37.654Z,101285.18
2023-01-22T00:31:25.702Z,101284.52
2023-01-22T00:34:12.124Z,101287.19
2023-01-22T00:36:58.809Z,101296.45
2023-01-22T00:39:45.491Z,101296.15
2023-01-22T00:42:35.352Z,101298.16
2023-01-22T00:45:22.205Z,101301.58
2023-01-22T00:48:08.854Z,101299.34
2023-01-22T00:50:56.918Z,101302.52
2023-01-22T00:53:44.209Z,101307.54
2023-01-22T00:56:30.715Z,101306.59
2023-01-22T00:59:17.658Z,101303.18
2023-01-22T01:02:04.270Z,101311.58
2023-01-22T01:04:51.077Z,101311.67
2023-01-22T01:07:37.830Z,101315.33
2023-01-22T01:10:24.194Z,101312.08
2023-01-22T01:13:11.861Z,101311.17
2023-01-22T01:16:00.852Z,101317.09
2023-01-22T01:18:48.375Z,101321.14
2023-01-22T01:21:35.412Z,101321.89
2023-01-22T01:24:22.109Z,101324.04
2023-01-22T01:27:08.895Z,101324.74
2023-01-22T01:29:55.650Z,101325.92
2023-01-22T01:32:43.388Z,101324.42
2023-01-22T01:35:30.198Z,101330.56
2023-01-22T01:38:17.183Z,101332.80
2023-01-22T01:41:04.447Z,101335.45
2023-01-22T01:44:12.395Z,101339.11
2023-01-22T01:47:00.457Z,101341.05
2023-01-22T01:49:53.540Z,101339.80
2023-01-22T01:52:42.799Z,101340.56
2023-01-22T01:55:31.601Z,101346.85
2023-01-22T01:58:21.738Z,101350.79
2023-01-22T02:01:14.287Z,101353.73
2023-01-22T02:04:01.399Z,101357.78
2023-01-22T02:06:47.789Z,101361.97
2023-01-22T02:09:34.716Z,101359.30
2023-01-22T02:12:21.366Z,101360.30
2023-01-22T02:15:08.782Z,101362.86
2023-01-22T02:17:55.323Z,101358.35
2023-01-22T02:20:52.783Z,101363.11
2023-01-22T02:23:39.323Z,101361.73
2023-01-22T02:26:25.901Z,101356.02
2023-01-22T02:29:15.093Z,101356.80
2023-01-22T02:32:01.813Z,101350.63
2023-01-22T02:34:48.928Z,101355.42
2023-01-22T02:37:35.337Z,101357.12
2023-01-22T02:40:22.215Z,101359.65
2023-01-22T02:43:09.078Z,101366.86
2023-01-22T02:45:55.884Z,101373.31
2023-01-22T02:48:42.748Z,101378.88
2023-01-22T02:51:29.452Z,101376.77
2023-01-22T02:54:16.046Z,101377.27
2023-01-22T02:57:02.730Z,101378.08
2023-01-22T02:59:49.659Z,101379.30
2023-01-22T03:02:36.302Z,101379.10
2023-01-22T03:05:23.146Z,101376.23
2023-01-22T03:08:09.617Z,101376.39
2023-01-22T03:10:59.350Z,101375.00
2023-01-22T03:14:04.875Z,101383.64
2023-01-22T03:17:10.025Z,101389.62
2023-01-22T03:20:15.445Z,101391.88
2023-01-22T03:23:02.312Z,101396.34
2023-01-22T03:25:49.059Z,101404.80
2023-01-22T03:28:36.630Z,101408.00
2023-01-22T03:31:23.171Z,101408.73
2023-01-22T03:34:10.000Z,101414.95
2023-01-22T03:36:56.722Z,101419.89
2023-01-22T03:39:43.498Z,101420.98
2023-01-22T03:42:30.334Z,101419.80
2023-01-22T03:45:17.025Z,101419.16
2023-01-22T03:48:03.946Z,101418.63
2023-01-22T03:50:50.708Z,101417.93
2023-01-22T03:53:38.014Z,101419.10
2023-01-22T03:56:25.597Z,101419.14
2023-01-22T03:59:12.123Z,101421.31
2023-01-22T04:01:59.031Z,101427.74
2023-01-22T04:04:47.828Z,101428.67
2023-01-22T04:07:34.545Z,101430.52
2023-01-22T04:10:21.543Z,101435.05
2023-01-22T04:13:08.793Z,101441.35
2023-01-22T04:15:56.156Z,101449.55
2023-01-22T04:18:43.255Z,101448.42
2023-01-22T04:21:29.959Z,101451.98
2023-01-22T04:24:16.529Z,101449.70
2023-01-22T04:27:03.357Z,101442.64
2023-01-22T04:29:51.351Z,101442.34
2023-01-22T04:32:37.959Z,101442.56
2023-01-22T04:35:24.827Z,101448.14
2023-01-22T04:38:14.599Z,101447.19
2023-01-22T04:41:01.592Z,101450.44
2023-01-22T04:43:48.233Z,101453.73
2023-01-22T04:46:34.997Z,101459.59
2023-01-22T04:49:21.822Z,101465.75
2023-01-22T04:52:08.629Z,101468.42
2023-01-22T04:54:55.324Z,101471.19
2023-01-22T04:57:42.047Z,101472.73
2023-01-22T05:00:30.543Z,101472.95
2023-01-22T05:03:16.969Z,101475.20
2023-01-22T05:06:04.922Z,101479.06
2023-01-22T05:08:51.712Z,101484.45
2023-01-22T05:11:38.219Z,101481.42
2023-01-22T05:14:24.852Z,101486.51
2023-01-22T05:17:11.515Z,101481.66
2023-01-22T05:19:58.157Z,101482.35
2023-01-22T05:22:44.930Z,101483.42
2023-01-22T05:25:31.749Z,101482.59
2023-01-22T05:28:18.412Z,101484.89
2023-01-22T05:31:05.264Z,101485.32
2023-01-22T05:33:52.026Z,101485.85
2023-01-22T05:36:38.613Z,101491.40
2023-01-22T05:39:25.289Z,101495.81
2023-01-22T05:42:16.201Z,101491.69
2023-01-22T05:45:02.501Z,101495.50
2023-01-22T05:47:53.707Z,101494.60
2023-01-22T05:50:41.770Z,101500.17
2023-01-22T05:53:28.357Z,101502.89
2023-01-22T05:56:17.876Z,101505.41
2023-01-22T05:59:04.645Z,101510.92
2023-01-22T06:01:51.350Z,101515.85
2023-01-22T06:04:38.169Z,101517.88
2023-01-22T06:07:24.754Z,101521.88
2023-01-22T06:10:11.526Z,101523.55
2023-01-22T06:12:58.514Z,101524.72
2023-01-22T06:15:45.176Z,101525.04
2023-01-22T06:18:32.225Z,101533.15
2023-01-22T06:21:19.638Z,101534.52
2023-01-22T06:24:06.775Z,101533.67
2023-01-22T06:26:53.488Z,101539.00
2023-01-22T06:29:40.297Z,101537.34
2023-01-22T06:32:27.139Z,101541.58
2023-01-22T06:35:15.200Z,101541.85
2023-01-22T06:38:02.087Z,101543.42
2023-01-22T06:40:56.624Z,101544.10
2023-01-22T06:43:43.242Z,101547.70
2023-01-22T06:46:30.027Z,101549.98
2023-01-22T06:49:16.845Z,101553.70
2023-01-22T06:52:06.451Z,101555.52
2023-01-22T06:54:52.704Z,101559.05
2023-01-22T06:57:39.137Z,101567.25
2023-01-22T07:00:25.874Z,101567.19
2023-01-22T07:03:15.080Z,101575.86
2023-01-22T07:06:03.969Z,101579.83
2023-01-22T07:08:50.647Z,101582.31
2023-01-22T07:11:37.293Z,101589.18
2023-01-22T07:14:36.590Z,101594.45
2023-01-22T07:17:23.600Z,101598.61
2023-01-22T07:20:11.167Z,101602.69
2023-01-22T07:23:00.189Z,101612.10
2023-01-22T07:25:46.721Z,101610.16
2023-01-22T07:28:34.182Z,101611.83
2023-01-22T07:31:20.649Z,101610.71
2023-01-22T07:34:07.867Z,101610.86
2023-01-22T07:36:54.939Z,101615.77
2023-01-22T07:39:41.398Z,101619.89
2023-01-22T07:42:28.094Z,101623.62
2023-01-22T07:45:14.564Z,101624.23
2023-01-22T07:48:01.197Z,101632.20
2023-01-22T07:50:47.492Z,101634.90
2023-01-22T07:53:35.300Z,101637.63
2023-01-22T07:56:24.185Z,101634.88
2023-01-22T07:59:12.409Z,101639.05
2023-01-22T08:01:58.774Z,101642.38
2023-01-22T08:04:45.654Z,101647.73
2023-01-22T08:07:33.355Z,101645.23
2023-01-22T08:10:20.819Z,101655.15
2023-01-22T08:13:07.483Z,101651.80
2023-01-22T08:15:55.234Z,101654.84
2023-01-22T08:18:41.977Z,101653.00
2023-01-22T08:21:28.892Z,101655.06
2023-01-22T08:24:15.579Z,101654.60
2023-01-22T08:27:05.193Z,101653.27
2023-01-22T08:29:51.529Z,101654.57
2023-01-22T08:32:41.526Z,101656.52
2023-01-22T08:35:29.031Z,101659.79
2023-01-22T08:38:16.708Z,101663.71
2023-01-22T08:41:10.275Z,101665.83
2023-01-22T08:43:57.019Z,101672.80
2023-01-22T08:46:46.650Z,101671.98
2023-01-22T08:49:36.775Z,101678.83
2023-01-22T08:52:25.331Z,101679.73
2023-01-22T08:55:12.200Z,101679.80
2023-01-22T08:57:58.939Z,101675.44
2023-01-22T09:00:47.741Z,101679.45
2023-01-22T09:03:34.265Z,101683.16
2023-01-22T09:06:20.733Z,101684.23
2023-01-22T09:09:08.049Z,101684.77
2023-01-22T09:11:54.758Z,101686.86
2023-01-22T09:14:41.103Z,101692.77
2023-01-22T09:17:28.231Z,101695.91
2023-01-22T09:20:15.175Z,101699.86
2023-01-22T09:23:04.330Z,101702.33
2023-01-22T09:25:50.894Z,101700.98
2023-01-22T09:28:37.923Z,101708.73
2023-01-22T09:31:24.315Z,101710.73
2023-01-22T09:34:10.859Z,101714.57
2023-01-22T09:36:57.701Z,101713.50
2023-01-22T09:39:44.497Z,101715.79
2023-01-22T09:42:35.183Z,101717.48
2023-01-22T09:45:25.647Z,101717.79
2023-01-22T09:48:17.203Z,101717.74
2023-01-22T09:51:05.192Z,101714.04
2023-01-22T09:53:56.923Z,101712.06
2023-01-22T09:56:47.134Z,101709.10
2023-01-22T09:59:43.380Z,101713.40
2023-01-22T10:02:41.790Z,101709.48
2023-01-22T10:05:41.148Z,101712.54
2023-01-22T10:08:40.207Z,101716.29
2023-01-22T10:11:26.936Z,101724.23
2023-01-22T10:14:17.506Z,101724.96
2023-01-22T10:17:05.053Z,101722.54
2023-01-22T10:19:58.565Z,101721.67
2023-01-22T10:22:45.371Z,101716.16
2023-01-22T10:25:33.487Z,101721.19
2023-01-22T10:28:25.835Z,101719.40
2023-01-22T10:31:34.752Z,101720.73
2023-01-22T10:34:36.090Z,101717.20
2023-01-22T10:37:25.522Z,101722.27
2023-01-22T10:40:27.435Z,101717.05
2023-01-22T10:43:17.537Z,101712.20
2023-01-22T10:46:20.619Z,101708.70
2023-01-22T10:49:08.434Z,101708.15
2023-01-22T10:51:57.779Z,101702.64
2023-01-22T10:54:54.117Z,101704.38
2023-01-22T10:57:41.147Z,101704.41
2023-01-22T11:00:39.777Z,101704.84
2023-01-22T11:03:36.323Z,101702.89
2023-01-22T11:06:29.004Z,101700.23
2023-01-22T11:09:33.530Z,101699.36
2023-01-22T11:12:26.277Z,101701.80
2023-01-22T11:15:25.138Z,101701.42
2023-01-22T11:18:19.051Z,101704.27
2023-01-22T11:21:16.767Z,101707.13
2023-01-22T11:24:15.776Z,101704.95
2023-01-22T11:27:27.229Z,101707.36
2023-01-22T11:30:37.250Z,101711.09
2023-01-22T11:33:35.897Z,101707.90
2023-01-22T11:36:32.741Z,101707.48
2023-01-22T11:39:48.946Z,101705.07
2023-01-22T11:42:54.493Z,101700.95
2023-01-22T11:46:03.694Z,101699.52
2023-01-22T11:48:49.990Z,101694.54
2023-01-22T11:52:02.453Z,101686.64
2023-01-22T11:55:18.341Z,101690.95
2023-01-22T11:58:23.759Z,101688.13
2023-01-22T12:02:04.263Z,101694.86
2023-01-22T12:05:13.297Z,101696.12
2023-01-22T12:08:18.693Z,101694.67
2023-01-22T12:11:20.736Z,101694.85
2023-01-22T12:14:11.903Z,101692.26
2023-01-22T12:17:36.076Z,101696.85
2023-01-22T12:20:34.860Z,101697.09
2023-01-22T12:23:31.389Z,101697.69
2023-01-22T12:26:24.155Z,101696.91
2023-01-22T12:29:29.369Z,101700.13
2023-01-22T12:32:19.188Z,101704.92
2023-01-22T12:35:14.839Z,101702.71
2023-01-22T12:38:15.415Z,101701.08
2023-01-22T12:41:44.667Z,101701.19
2023-01-22T12:44:53.111Z,101702.88
2023-01-22T12:47:45.766Z,101702.96
2023-01-22T12:50:32.927Z,101705.33
2023-01-22T12:53:27.247Z,101704.66
2023-01-22T12:56:29.993Z,101705.92
2023-01-22T12:59:46.677Z,101711.18
2023-01-22T13:02:37.965Z,101709.36
2023-01-22T13:05:30.742Z,101710.46
2023-01-22T13:08:17.495Z,101713.42
2023-01-22T13:11:10.149Z,101713.08
2023-01-22T13:14:20.440Z,101716.45
2023-01-22T13:17:19.855Z,101723.45
2023-01-22T13:20:16.710Z,101727.80
2023-01-22T13:23:06.969Z,101732.91
2023-01-22T13:25:57.738Z,101734.79
2023-01-22T13:28:56.049Z,101732.79
2023-01-22T13:31:54.863Z,101734.86
2023-01-22T13:34:41.480Z,101733.96
2023-01-22T13:37:28.582Z,101733.16
2023-01-22T13:40:23.875Z,101731.39
2023-01-22T13:43:18.637Z,101732.17
2023-01-22T13:46:06.075Z,101727.80
2023-01-22T13:49:06.839Z,101728.86
2023-01-22T13:51:56.660Z,101729.61
2023-01-22T13:54:59.359Z,101730.94
2023-01-22T13:57:48.148Z,101733.04
2023-01-22T14:00:37.377Z,101734.94
2023-01-22T14:07:41.994Z,101738.52
2023-01-22T14:10:30.687Z,101742.30
2023-01-22T14:13:17.688Z,101748.98
2023-01-22T14:16:06.994Z,101755.17
2023-01-22T14:18:56.178Z,101758.80
2023-01-22T14:21:43.130Z,101765.88
2023-01-22T14:24:30.513Z,101768.56
2023-01-22T14:27:17.310Z,101766.42
2023-01-22T14:30:05.028Z,101767.27
2023-01-22T14:32:51.627Z,101765.71
2023-01-22T14:35:37.973Z,101768.16
2023-01-22T14:38:26.058Z,101773.63
2023-01-22T14:41:12.299Z,101778.81
2023-01-22T14:43:58.957Z,101780.80
2023-01-22T14:46:45.667Z,101781.63
2023-01-22T14:49:33.196Z,101785.17
2023-01-22T14:52:19.658Z,101785.97
2023-01-22T14:55:07.893Z,101789.52
2023-01-22T14:57:55.159Z,101798.70
2023-01-22T15:00:42.281Z,101800.94
2023-01-22T15:03:30.666Z,101800.20
2023-01-22T15:06:17.391Z,101802.81
2023-01-22T15:09:04.227Z,101804.96
2023-01-22T15:11:51.281Z,101809.05
2023-01-22T15:14:40.350Z,101812.77
2023-01-22T15:17:27.199Z,101817.48
2023-01-22T15:20:14.401Z,101820.66
2023-01-22T15:23:01.115Z,101824.77
2023-01-22T15:26:10.673Z,101820.84
2023-01-22T15:28:57.104Z,101818.35
2023-01-22T15:31:43.997Z,101823.88
2023-01-22T15:34:32.180Z,101823.85
2023-01-22T15:37:19.628Z,101829.10
2023-01-22T15:40:07.335Z,101833.49
2023-01-22T15:42:55.044Z,101833.17
2023-01-22T15:45:41.799Z,101835.30
2023-01-22T15:48:28.485Z,101836.11
2023-01-22T15:51:15.963Z,101839.55
2023-01-22T15:54:04.402Z,101835.66
2023-01-22T16:03:05.555Z,101838.45
2023-01-22T16:05:52.488Z,101844.77
2023-01-22T16:08:40.198Z,101846.92
2023-01-22T16:11:30.930Z,101855.92
2023-01-22T16:14:17.572Z,101857.81
2023-01-22T16:17:04.095Z,101860.18
2023-01-22T16:19:51.925Z,101861.70
2023-01-22T16:28:34.308Z,101871.35
2023-01-22T16:31:24.065Z,101874.73
2023-01-22T16:34:14.746Z,101874.77
2023-01-22T16:37:01.124Z,101873.86
2023-01-22T16:39:48.230Z,101875.91
2023-01-22T16:42:58.632Z,101878.38
2023-01-22T16:45:45.067Z,101874.35
2023-01-22T16:48:31.830Z,101873.39
2023-01-22T16:51:20.586Z,101876.23
2023-01-22T16:54:10.021Z,101875.18
2023-01-22T16:57:03.988Z,101879.18
2023-01-22T16:59:50.515Z,101878.33
2023-01-22T17:02:37.010Z,101882.96
2023-01-22T17:05:26.668Z,101884.68
2023-01-22T17:08:13.674Z,101890.45
2023-01-22T17:11:00.233Z,101897.25
2023-01-22T17:13:47.306Z,101896.40
2023-01-22T17:16:33.801Z,101902.44
2023-01-22T17:19:20.829Z,101900.38
2023-01-22T17:22:07.795Z,101899.84
2023-01-22T17:24:54.404Z,101902.13
2023-01-22T17:27:42.621Z,101901.02
2023-01-22T17:30:29.161Z,101902.63
2023-01-22T17:33:20.958Z,101903.84
2023-01-22T17:36:11.361Z,101907.30
2023-01-22T17:38:58.070Z,101911.11
2023-01-22T17:41:44.906Z,101921.02
2023-01-22T17:44:34.270Z,101929.02
2023-01-22T17:47:21.026Z,101932.13
2023-01-22T17:50:18.251Z,101931.84
2023-01-22T17:53:05.018Z,101928.60
2023-01-22T17:55:51.903Z,101934.67
2023-01-22T17:58:42.669Z,101935.67
2023-01-22T18:01:31.038Z,101935.69
2023-01-22T18:04:18.283Z,101935.55
2023-01-22T18:07:05.265Z,101938.48
2023-01-22T18:09:54.054Z,101943.89
2023-01-22T18:12:44.501Z,101941.96
2023-01-22T18:15:30.900Z,101944.98
2023-01-22T18:18:24.322Z,101941.03
2023-01-22T18:21:17.124Z,101939.65
2023-01-22T18:24:06.440Z,101941.85
2023-01-22T18:26:58.752Z,101941.05
2023-01-22T18:29:45.533Z,101937.22
2023-01-22T18:32:32.001Z,101939.24
2023-01-22T18:35:18.886Z,101943.02
2023-01-22T18:38:06.798Z,101946.39
2023-01-22T18:40:55.611Z,101948.73
2023-01-22T18:43:46.564Z,101949.77
2023-01-22T18:46:36.768Z,101950.54
2023-01-22T18:49:24.068Z,101947.30
2023-01-22T18:52:10.966Z,101949.23
2023-01-22T18:54:58.114Z,101951.48
2023-01-22T18:58:19.099Z,101952.67
2023-01-22T19:01:17.389Z,101959.45
2023-01-22T19:04:11.779Z,101957.25
2023-01-22T19:07:01.612Z,101953.34
2023-01-22T19:09:48.416Z,101956.46
2023-01-22T19:12:35.986Z,101957.70
2023-01-22T19:15:25.178Z,101953.73
2023-01-22T19:18:13.109Z,101955.81
2023-01-22T19:21:08.193Z,101955.54
2023-01-22T19:23:57.726Z,101952.40
2023-01-22T19:26:46.651Z,101952.55
2023-01-22T19:29:33.425Z,101958.00
2023-01-22T19:32:27.711Z,101956.08
2023-01-22T19:35:14.607Z,101955.34
2023-01-22T19:38:02.015Z,101955.02
2023-01-22T19:40:49.324Z,101960.82
2023-01-22T19:43:36.367Z,101963.41
2023-01-22T19:46:23.446Z,101966.89
2023-01-22T19:49:16.215Z,101975.10
2023-01-22T19:52:03.691Z,101980.21
2023-01-22T19:54:50.611Z,101982.52
2023-01-22T19:57:38.335Z,101984.75
2023-01-22T20:00:24.810Z,101982.45
2023-01-22T20:03:11.890Z,101984.98
2023-01-22T20:05:59.688Z,101982.86
2023-01-22T20:08:46.493Z,101985.94
2023-01-22T20:11:33.383Z,101985.73
2023-01-22T20:14:22.645Z,101990.71
2023-01-22T20:17:10.323Z,101990.41
2023-01-22T20:19:56.980Z,101989.89
2023-01-22T20:22:44.350Z,101986.59
2023-01-22T20:25:32.078Z,101988.98
2023-01-22T20:28:19.601Z,101992.83
2023-01-22T20:31:09.866Z,101992.17
2023-01-22T20:33:57.172Z,101989.19
2023-01-22T20:36:44.550Z,101992.66
2023-01-22T20:39:30.941Z,101991.16
2023-01-22T20:42:17.696Z,101994.25
2023-01-22T20:45:06.263Z,102002.47
2023-01-22T20:47:52.917Z,102002.48
2023-01-22T20:50:43.631Z,102003.88
2023-01-22T20:53:30.923Z,102004.02
2023-01-22T20:56:22.723Z,102000.77
2023-01-22T20:59:17.267Z,102001.44
2023-01-22T21:02:05.238Z,102007.49
2023-01-22T21:04:53.016Z,102008.52
2023-01-22T21:07:42.846Z,102014.18
2023-01-22T21:10:29.499Z,102016.08
2023-01-22T21:13:18.173Z,102017.73
2023-01-22T21:16:14.836Z,102025.50
2023-01-22T21:19:04.710Z,102024.51
2023-01-22T21:21:52.960Z,102030.98
2023-01-22T21:24:39.709Z,102028.02
2023-01-22T21:27:28.551Z,102027.79
2023-01-22T21:30:15.333Z,102026.41
2023-01-22T21:33:02.135Z,102023.98
2023-01-22T21:35:49.846Z,102028.61
2023-01-22T21:38:37.201Z,102031.02
2023-01-22T21:41:24.243Z,102028.64
2023-01-22T21:44:31.242Z,102026.59
2023-01-22T21:47:37.693Z,102023.48
2023-01-22T21:50:24.462Z,102024.43
2023-01-22T21:53:12.872Z,102024.00
2023-01-22T21:55:59.599Z,102024.07
2023-01-22T21:58:47.219Z,102023.05
2023-01-22T22:01:35.074Z,102026.75
2023-01-22T22:04:24.125Z,102025.02
2023-01-22T22:07:11.656Z,102027.63
2023-01-22T22:10:03.066Z,102031.46
2023-01-22T22:12:55.335Z,102031.78
2023-01-22T22:15:44.900Z,102031.38
2023-01-22T22:18:32.458Z,102032.16
2023-01-22T22:21:20.488Z,102032.89
2023-01-22T22:24:09.291Z,102035.08
2023-01-22T22:26:57.125Z,102036.27
2023-01-22T22:29:50.387Z,102033.32
2023-01-22T22:32:41.392Z,102033.60
2023-01-22T22:35:31.282Z,102035.45
2023-01-22T22:38:18.636Z,102037.75
2023-01-22T22:41:19.435Z,102036.52
2023-01-22T22:44:07.128Z,102040.26
2023-01-22T22:46:54.909Z,102040.94
2023-01-22T22:49:42.263Z,102041.40
2023-01-22T22:52:29.221Z,102047.44
2023-01-22T22:55:17.058Z,102055.10
2023-01-22T22:58:03.880Z,102060.58
2023-01-22T23:00:50.736Z,102062.47
2023-01-22T23:03:37.845Z,102066.32
2023-01-22T23:06:27.441Z,102070.46
2023-01-22T23:09:23.234Z,102074.73
2023-01-22T23:12:10.124Z,102073.04
2023-01-22T23:14:56.986Z,102081.71
2023-01-22T23:17:43.589Z,102078.80
2023-01-22T23:20:33.481Z,102081.58
2023-01-22T23:23:23.555Z,102083.25
2023-01-22T23:26:13.426Z,102087.05
2023-01-22T23:29:02.521Z,102090.89
2023-01-22T23:31:49.808Z,102097.45
2023-01-22T23:34:38.844Z,102099.98
2023-01-22T23:37:26.632Z,102096.84
2023-01-22T23:40:13.514Z,102096.27
2023-01-22T23:43:01.372Z,102095.55
2023-01-22T23:45:48.028Z,102096.46
2023-01-22T23:48:34.864Z,102096.68
2023-01-22T23:51:22.266Z,102098.90
2023-01-22T23:54:09.134Z,102099.14
2023-01-22T23:56:55.846Z,102103.27
2023-01-22T23:59:42.922Z,102102.91
